Time;durP1;ratioP1;P1;durP2;ratioP2;P2;SDS_P1;SDS_P2;PMS_P1;PMS_P2;Temp;Humidity;BMP_temperature;BMP_pressure;BME280_temperature;BME280_humidity;BME280_pressure;Samples;Min_cycle;Max_cycle;Signal;HPM_P1;HPM_P2
2021/12/14 00:01:46;;;;;;;;;;;8.30;99.90;;;;;;5033228;28;19920;-69
2021/12/14 00:04:24;;;;;;;;;;;8.30;99.90;;;;;;5039099;28;20362;-69
2021/12/14 00:06:50;;;;;;;;;;;8.20;99.90;;;;;;5033539;28;20011;-69
2021/12/14 00:09:26;;;;;;;;;;;8.20;99.90;;;;;;5034498;28;19999;-69
2021/12/14 00:12:16;;;;;;;;;;;8.20;99.90;;;;;;5034086;28;19975;-69
2021/12/14 00:17:14;;;;;;;;;;;8.20;99.90;;;;;;5035011;28;19905;-69
2021/12/14 00:19:40;;;;;;;;;;;8.20;99.90;;;;;;5034139;28;19927;-70
2021/12/14 00:22:19;;;;;;;;;;;8.20;99.90;;;;;;5033562;28;20003;-70
2021/12/14 00:24:44;;;;;;;;;;;8.20;99.90;;;;;;5034020;28;20383;-70
2021/12/14 00:27:11;;;;;;;;;;;8.10;99.90;;;;;;5034809;28;20008;-69
2021/12/14 00:29:41;;;;;;;;;;;8.20;99.90;;;;;;5033847;28;19952;-69
2021/12/14 00:32:10;;;;;;;;;;;8.20;99.90;;;;;;5033930;28;19999;-69
2021/12/14 00:34:43;;;;;;;;;;;8.20;99.90;;;;;;5032169;28;20353;-69
2021/12/14 00:37:16;;;;;;;;;;;8.10;99.90;;;;;;5048245;28;19909;-70
2021/12/14 00:39:42;;;;;;;;;;;8.10;99.90;;;;;;5041966;28;19905;-69
2021/12/14 00:42:07;;;;;;;;;;;8.10;99.90;;;;;;5033076;28;20356;-69
2021/12/14 00:44:34;;;;;;;;;;;8.20;99.90;;;;;;5033931;28;19920;-69
2021/12/14 00:46:59;;;;;;;;;;;8.10;99.90;;;;;;5034189;28;19915;-69
2021/12/14 00:49:25;;;;;;;;;;;8.10;99.90;;;;;;5033351;28;19983;-69
2021/12/14 00:51:51;;;;;;;;;;;8.10;99.90;;;;;;5033036;28;19912;-69
2021/12/14 00:54:16;;;;;;;;;;;8.00;99.90;;;;;;5033741;28;19944;-69
2021/12/14 00:56:42;;;;;;;;;;;8.10;99.90;;;;;;5034057;28;19915;-70
2021/12/14 00:59:08;;;;;;;;;;;8.00;99.90;;;;;;5032957;28;19909;-69
2021/12/14 01:01:41;;;;;;;;;;;8.00;99.90;;;;;;5033154;28;19917;-69
2021/12/14 01:04:11;;;;;;;;;;;8.00;99.90;;;;;;5033106;28;19913;-69
2021/12/14 01:06:44;;;;;;;;;;;8.10;99.90;;;;;;5034061;28;19909;-69
2021/12/14 01:09:09;;;;;;;;;;;8.00;99.90;;;;;;5032936;28;19916;-69
2021/12/14 01:11:39;;;;;;;;;;;8.10;99.90;;;;;;5032770;28;19909;-69
2021/12/14 01:14:17;;;;;;;;;;;8.10;99.90;;;;;;5032773;28;20357;-70
2021/12/14 01:16:55;;;;;;;;;;;8.10;99.90;;;;;;5033430;28;19916;-70
2021/12/14 01:19:26;;;;;;;;;;;8.10;99.90;;;;;;5033173;28;19912;-70
2021/12/14 01:22:11;;;;;;;;;;;8.10;99.90;;;;;;5037940;28;19983;-69
2021/12/14 01:27:16;;;;;;;;;;;8.10;99.90;;;;;;5033776;28;19960;-69
2021/12/14 01:29:43;;;;;;;;;;;8.00;99.90;;;;;;5033022;28;19909;-69
2021/12/14 01:32:09;;;;;;;;;;;8.00;99.90;;;;;;5032405;28;19916;-70
2021/12/14 01:34:36;;;;;;;;;;;8.00;99.90;;;;;;5032865;28;19909;-69
2021/12/14 01:37:06;;;;;;;;;;;8.00;99.90;;;;;;5039663;28;20321;-70
2021/12/14 01:42:11;;;;;;;;;;;8.00;99.90;;;;;;5032035;28;20283;-69
2021/12/14 01:44:38;;;;;;;;;;;8.00;99.90;;;;;;5032410;28;20356;-69
2021/12/14 01:47:06;;;;;;;;;;;8.00;99.90;;;;;;5032923;28;20324;-69
2021/12/14 01:49:31;;;;;;;;;;;8.00;99.90;;;;;;5032451;28;19909;-70
2021/12/14 01:51:59;;;;;;;;;;;8.00;99.90;;;;;;5031400;28;19955;-69
2021/12/14 01:54:27;;;;;;;;;;;8.00;99.90;;;;;;5032632;28;19970;-69
2021/12/14 01:56:52;;;;;;;;;;;8.00;99.90;;;;;;5032509;28;20291;-69
2021/12/14 01:59:25;;;;;;;;;;;8.00;99.90;;;;;;5032287;28;19909;-69
2021/12/14 02:01:57;;;;;;;;;;;8.00;99.90;;;;;;5031713;28;19924;-70
2021/12/14 02:04:24;;;;;;;;;;;7.90;99.90;;;;;;5032372;28;20490;-69
2021/12/14 02:06:59;;;;;;;;;;;8.00;99.90;;;;;;5031846;28;20280;-70
2021/12/14 02:09:26;;;;;;;;;;;8.00;99.90;;;;;;5024456;28;19909;-69
2021/12/14 02:11:53;;;;;;;;;;;8.00;99.90;;;;;;5031577;28;19917;-69
2021/12/14 02:14:19;;;;;;;;;;;7.90;99.90;;;;;;5032208;28;20288;-69
2021/12/14 02:16:47;;;;;;;;;;;7.90;99.90;;;;;;5032169;28;20412;-69
2021/12/14 02:19:14;;;;;;;;;;;8.00;99.90;;;;;;5028908;28;20287;-70
2021/12/14 02:21:40;;;;;;;;;;;7.90;99.90;;;;;;5031453;28;19964;-69
2021/12/14 02:24:07;;;;;;;;;;;7.90;99.90;;;;;;5032614;28;19949;-69
2021/12/14 02:26:34;;;;;;;;;;;7.90;99.90;;;;;;5031924;28;19913;-70
2021/12/14 02:29:03;;;;;;;;;;;7.90;99.90;;;;;;5032222;28;19915;-69
2021/12/14 02:31:28;;;;;;;;;;;7.90;99.90;;;;;;5031516;28;19963;-69
2021/12/14 02:33:55;;;;;;;;;;;7.90;99.90;;;;;;5032690;28;19944;-70
2021/12/14 02:36:22;;;;;;;;;;;7.90;99.90;;;;;;5033674;28;19909;-70
2021/12/14 02:38:49;;;;;;;;;;;7.90;99.90;;;;;;5032415;28;19909;-70
2021/12/14 02:41:15;;;;;;;;;;;7.90;99.90;;;;;;5035363;28;19917;-69
2021/12/14 02:43:43;;;;;;;;;;;7.90;99.90;;;;;;5032405;28;19916;-69
2021/12/14 02:46:20;;;;;;;;;;;7.90;99.90;;;;;;5025828;28;19979;-69
2021/12/14 02:48:47;;;;;;;;;;;7.90;99.90;;;;;;5032107;28;19956;-69
2021/12/14 02:51:15;;;;;;;;;;;7.90;99.90;;;;;;5024531;28;19909;-70
2021/12/14 02:53:41;;;;;;;;;;;7.80;99.90;;;;;;5031703;28;19905;-69
2021/12/14 02:56:08;;;;;;;;;;;7.90;99.90;;;;;;5032175;28;19956;-69
2021/12/14 02:58:33;;;;;;;;;;;7.80;99.90;;;;;;5030557;28;19913;-70
2021/12/14 03:01:00;;;;;;;;;;;7.80;99.90;;;;;;5023588;28;19939;-69
2021/12/14 03:03:26;;;;;;;;;;;7.80;99.90;;;;;;5032316;28;20279;-69
2021/12/14 03:05:52;;;;;;;;;;;7.80;99.90;;;;;;5027064;28;19917;-69
2021/12/14 03:08:19;;;;;;;;;;;7.80;99.90;;;;;;5031937;28;19909;-69
2021/12/14 03:10:59;;;;;;;;;;;7.80;99.90;;;;;;5031100;28;19909;-69
2021/12/14 03:13:31;;;;;;;;;;;7.80;99.90;;;;;;5031189;28;19916;-70
2021/12/14 03:15:58;;;;;;;;;;;7.80;99.90;;;;;;5032027;28;19916;-69
2021/12/14 03:18:26;;;;;;;;;;;7.80;99.90;;;;;;5031954;28;19917;-69
2021/12/14 03:20:54;;;;;;;;;;;7.80;99.90;;;;;;5029978;28;19913;-69
2021/12/14 03:23:22;;;;;;;;;;;7.80;99.90;;;;;;5034301;28;19913;-69
2021/12/14 03:25:49;;;;;;;;;;;7.80;99.90;;;;;;5035547;28;19969;-70
2021/12/14 03:28:16;;;;;;;;;;;7.80;99.90;;;;;;5035766;28;20371;-69
2021/12/14 03:30:49;;;;;;;;;;;7.80;99.90;;;;;;5034589;28;20343;-69
2021/12/14 03:33:18;;;;;;;;;;;7.80;99.90;;;;;;5035603;28;19936;-70
2021/12/14 03:35:49;;;;;;;;;;;7.80;99.90;;;;;;5037419;28;20335;-69
2021/12/14 03:38:22;;;;;;;;;;;7.80;99.90;;;;;;5045323;28;20423;-69
2021/12/14 03:41:13;;;;;;;;;;;7.80;99.90;;;;;;5034716;28;19919;-69
2021/12/14 03:43:40;;;;;;;;;;;7.80;99.90;;;;;;5034743;28;19909;-69
2021/12/14 03:46:06;;;;;;;;;;;7.80;99.90;;;;;;5035006;28;19908;-70
2021/12/14 03:48:32;;;;;;;;;;;7.80;99.90;;;;;;5034712;28;20047;-70
2021/12/14 03:50:59;;;;;;;;;;;7.80;99.90;;;;;;5034073;28;20407;-69
2021/12/14 03:53:24;;;;;;;;;;;7.80;99.90;;;;;;5034926;28;19909;-69
2021/12/14 03:55:53;;;;;;;;;;;7.80;99.90;;;;;;5034729;28;19916;-69
2021/12/14 03:58:30;;;;;;;;;;;7.80;99.90;;;;;;5034694;28;19978;-70
2021/12/14 04:01:00;;;;;;;;;;;7.70;99.90;;;;;;5033287;28;19967;-69
2021/12/14 04:03:27;;;;;;;;;;;7.80;99.90;;;;;;5035056;28;20593;-69
2021/12/14 04:05:52;;;;;;;;;;;7.80;99.90;;;;;;5034408;28;19920;-69
2021/12/14 04:08:19;;;;;;;;;;;7.80;99.90;;;;;;5035018;28;19904;-69
2021/12/14 04:10:46;;;;;;;;;;;7.80;99.90;;;;;;5033646;28;19909;-70
2021/12/14 04:13:19;;;;;;;;;;;7.70;99.90;;;;;;5034683;28;19931;-70
2021/12/14 04:15:45;;;;;;;;;;;7.70;99.90;;;;;;5034148;28;19962;-69
2021/12/14 04:18:10;;;;;;;;;;;7.70;99.90;;;;;;5035038;28;19913;-70
2021/12/14 04:20:39;;;;;;;;;;;7.70;99.90;;;;;;5033093;28;19909;-69
2021/12/14 04:23:09;;;;;;;;;;;7.70;99.90;;;;;;5034921;28;19913;-69
2021/12/14 04:25:36;;;;;;;;;;;7.70;99.90;;;;;;5034417;28;19940;-69
2021/12/14 04:28:05;;;;;;;;;;;7.70;99.90;;;;;;5034987;28;19996;-69
2021/12/14 04:30:30;;;;;;;;;;;7.70;99.90;;;;;;5033606;28;19913;-70
2021/12/14 04:32:59;;;;;;;;;;;7.70;99.90;;;;;;5034375;28;20368;-70
2021/12/14 04:35:25;;;;;;;;;;;7.70;99.90;;;;;;5041535;28;19939;-69
2021/12/14 04:37:53;;;;;;;;;;;7.70;99.90;;;;;;5053169;28;19959;-69
2021/12/14 04:51:52;;;;;;;;;;;7.70;99.90;;;;;;5036763;28;19924;-70
2021/12/14 04:54:07;;;;;;;;;;;7.70;99.90;;;;;;5033752;28;19916;-70
2021/12/14 04:56:34;;;;;;;;;;;7.70;99.90;;;;;;5034238;28;19909;-69
2021/12/14 04:59:03;;;;;;;;;;;7.70;99.90;;;;;;5033588;28;20016;-69
2021/12/14 05:01:31;;;;;;;;;;;7.70;99.90;;;;;;5032258;28;19962;-69
2021/12/14 05:03:58;;;;;;;;;;;7.70;99.90;;;;;;5033031;28;19919;-69
2021/12/14 05:06:32;;;;;;;;;;;7.80;99.90;;;;;;5034016;28;19915;-70
2021/12/14 05:09:23;;;;;;;;;;;7.80;99.90;;;;;;5034525;28;19927;-70
2021/12/14 05:11:53;;;;;;;;;;;7.80;99.90;;;;;;5033011;28;19905;-69
2021/12/14 05:14:19;;;;;;;;;;;7.80;99.90;;;;;;5033939;28;19935;-70
2021/12/14 05:16:44;;;;;;;;;;;7.80;99.90;;;;;;5033913;28;19905;-69
2021/12/14 05:19:11;;;;;;;;;;;7.80;99.90;;;;;;5033848;28;20386;-69
2021/12/14 05:21:47;;;;;;;;;;;7.80;99.90;;;;;;5033009;28;20350;-69
2021/12/14 05:24:14;;;;;;;;;;;7.80;99.90;;;;;;5033147;28;20016;-70
2021/12/14 05:26:41;;;;;;;;;;;7.90;99.90;;;;;;5033599;28;19908;-69
2021/12/14 05:29:09;;;;;;;;;;;7.80;99.90;;;;;;5033082;28;19917;-70
2021/12/14 05:31:40;;;;;;;;;;;7.80;99.90;;;;;;5032948;28;19914;-69
2021/12/14 05:34:06;;;;;;;;;;;7.80;99.90;;;;;;5032976;28;19905;-70
2021/12/14 05:36:31;;;;;;;;;;;7.80;99.90;;;;;;5034758;28;20375;-70
2021/12/14 05:39:03;;;;;;;;;;;7.80;99.90;;;;;;5034414;28;19913;-69
2021/12/14 05:44:21;;;;;;;;;;;7.80;99.90;;;;;;5038468;28;19954;-69
2021/12/14 05:46:51;;;;;;;;;;;7.70;99.90;;;;;;5052829;28;19904;-69
2021/12/14 05:49:18;;;;;;;;;;;7.80;99.90;;;;;;5037175;28;20368;-69
2021/12/14 05:51:44;;;;;;;;;;;7.70;99.90;;;;;;5032030;28;19920;-69
2021/12/14 05:54:10;;;;;;;;;;;7.70;99.90;;;;;;5033283;28;20398;-69
2021/12/14 05:56:35;;;;;;;;;;;7.70;99.90;;;;;;5033270;28;19909;-69
2021/12/14 05:59:03;;;;;;;;;;;7.70;99.90;;;;;;5038811;28;19912;-69
2021/12/14 06:01:30;;;;;;;;;;;7.70;99.90;;;;;;5032036;28;20368;-69
2021/12/14 06:03:59;;;;;;;;;;;7.70;99.90;;;;;;5032851;28;20369;-69
2021/12/14 06:06:28;;;;;;;;;;;7.70;99.90;;;;;;5037975;28;19916;-70
2021/12/14 06:09:03;;;;;;;;;;;7.70;99.90;;;;;;5038788;28;19916;-69
2021/12/14 06:11:29;;;;;;;;;;;7.70;99.90;;;;;;5031972;28;19912;-69
2021/12/14 06:13:54;;;;;;;;;;;7.70;99.90;;;;;;5032834;28;20287;-69
2021/12/14 06:16:24;;;;;;;;;;;7.70;99.90;;;;;;5040383;28;19909;-69
2021/12/14 06:18:49;;;;;;;;;;;7.70;99.90;;;;;;5032133;28;19928;-70
2021/12/14 06:21:15;;;;;;;;;;;7.70;99.90;;;;;;5031994;28;19917;-70
2021/12/14 06:23:40;;;;;;;;;;;7.60;99.90;;;;;;5032670;28;20427;-69
2021/12/14 06:26:06;;;;;;;;;;;7.60;99.90;;;;;;5032198;28;19913;-69
2021/12/14 06:28:31;;;;;;;;;;;7.60;99.90;;;;;;5028711;28;20356;-69
2021/12/14 06:30:57;;;;;;;;;;;7.60;99.90;;;;;;5028698;28;19956;-69
2021/12/14 06:33:26;;;;;;;;;;;7.70;99.90;;;;;;5029835;28;19924;-69
2021/12/14 06:35:54;;;;;;;;;;;7.70;99.90;;;;;;5035277;28;19915;-69
2021/12/14 06:38:25;;;;;;;;;;;7.70;99.90;;;;;;5052589;28;19905;-69
2021/12/14 06:41:06;;;;;;;;;;;7.70;99.90;;;;;;5040367;28;20432;-69
2021/12/14 06:43:36;;;;;;;;;;;7.70;99.90;;;;;;5031901;28;19913;-68
2021/12/14 06:46:04;;;;;;;;;;;7.70;99.90;;;;;;5030156;28;20378;-68
2021/12/14 06:48:40;;;;;;;;;;;7.70;99.90;;;;;;5032168;28;19960;-69
2021/12/14 06:51:14;;;;;;;;;;;7.70;99.90;;;;;;5031294;28;19916;-69
2021/12/14 06:53:41;;;;;;;;;;;7.70;99.90;;;;;;5031454;28;19923;-69
2021/12/14 06:56:08;;;;;;;;;;;7.70;99.90;;;;;;5032627;28;19909;-69
2021/12/14 06:58:45;;;;;;;;;;;7.70;99.90;;;;;;5035725;28;19909;-69
2021/12/14 07:01:12;;;;;;;;;;;7.70;99.90;;;;;;5031971;28;19913;-69
2021/12/14 07:03:44;;;;;;;;;;;7.70;99.90;;;;;;5036389;28;20433;-69
2021/12/14 07:06:19;;;;;;;;;;;7.70;99.90;;;;;;5052216;28;20275;-70
2021/12/14 07:08:45;;;;;;;;;;;7.60;99.90;;;;;;5022923;28;19916;-69
2021/12/14 07:11:16;;;;;;;;;;;7.60;99.90;;;;;;5035372;28;19909;-69
2021/12/14 07:13:42;;;;;;;;;;;7.60;99.90;;;;;;5035450;28;20299;-69
2021/12/14 07:16:20;;;;;;;;;;;7.60;99.90;;;;;;5034273;28;19909;-69
2021/12/14 07:18:50;;;;;;;;;;;7.60;99.90;;;;;;5024842;28;19905;-69
2021/12/14 07:21:32;;;;;;;;;;;7.60;99.90;;;;;;5034435;28;19924;-69
2021/12/14 07:23:57;;;;;;;;;;;7.60;99.90;;;;;;5035071;28;19955;-69
2021/12/14 07:26:22;;;;;;;;;;;7.60;99.90;;;;;;5034814;28;19940;-69
2021/12/14 07:28:48;;;;;;;;;;;7.60;99.90;;;;;;5035352;28;19916;-70
2021/12/14 07:31:16;;;;;;;;;;;7.60;99.90;;;;;;5033427;28;19921;-70
2021/12/14 07:33:46;;;;;;;;;;;7.60;99.90;;;;;;5034720;28;19948;-70
2021/12/14 07:36:13;;;;;;;;;;;7.60;99.90;;;;;;5034345;28;19909;-70
2021/12/14 07:38:42;;;;;;;;;;;7.60;99.90;;;;;;5028100;28;20372;-70
2021/12/14 07:41:26;;;;;;;;;;;7.60;99.90;;;;;;5034366;28;19917;-70
2021/12/14 07:43:56;;;;;;;;;;;7.60;99.90;;;;;;5036422;28;19909;-70
2021/12/14 07:46:28;;;;;;;;;;;7.60;99.90;;;;;;5044944;28;19909;-70
2021/12/14 07:49:05;;;;;;;;;;;7.60;99.90;;;;;;5037594;28;20335;-70
2021/12/14 07:51:32;;;;;;;;;;;7.60;99.90;;;;;;5034799;28;19912;-69
2021/12/14 07:54:03;;;;;;;;;;;7.60;99.90;;;;;;5038437;28;19928;-69
2021/12/14 07:56:32;;;;;;;;;;;7.70;99.90;;;;;;5034012;28;19932;-70
2021/12/14 07:58:58;;;;;;;;;;;7.70;99.90;;;;;;5034738;28;19912;-69
2021/12/14 08:01:24;;;;;;;;;;;7.70;99.90;;;;;;5034052;28;20379;-70
2021/12/14 08:03:57;;;;;;;;;;;7.70;99.90;;;;;;5033383;28;19909;-70
2021/12/14 08:06:22;;;;;;;;;;;7.70;99.90;;;;;;5034260;28;19948;-70
2021/12/14 08:08:54;;;;;;;;;;;7.70;99.90;;;;;;5033691;28;20395;-69
2021/12/14 08:11:30;;;;;;;;;;;7.70;99.90;;;;;;5033715;28;19905;-70
2021/12/14 08:14:04;;;;;;;;;;;7.70;99.90;;;;;;5034256;28;19944;-70
2021/12/14 08:16:44;;;;;;;;;;;7.70;99.90;;;;;;5033391;28;19909;-70
2021/12/14 08:19:14;;;;;;;;;;;7.70;99.90;;;;;;5027036;28;19952;-70
2021/12/14 08:21:42;;;;;;;;;;;7.80;99.90;;;;;;5033814;28;19921;-70
2021/12/14 08:24:07;;;;;;;;;;;7.80;99.90;;;;;;5033203;28;19915;-69
2021/12/14 08:26:36;;;;;;;;;;;7.80;99.90;;;;;;5033851;28;19921;-69
2021/12/14 08:29:19;;;;;;;;;;;7.80;99.90;;;;;;5033963;28;19996;-70
2021/12/14 08:31:47;;;;;;;;;;;7.80;99.90;;;;;;5033351;28;20360;-70
2021/12/14 08:34:18;;;;;;;;;;;7.80;99.90;;;;;;5033735;28;20670;-70
2021/12/14 08:36:47;;;;;;;;;;;7.80;99.90;;;;;;5029674;28;19909;-69
2021/12/14 08:39:27;;;;;;;;;;;7.80;99.90;;;;;;5033660;28;19908;-69
2021/12/14 08:42:03;;;;;;;;;;;7.90;99.90;;;;;;5031917;28;19940;-69
2021/12/14 08:44:36;;;;;;;;;;;7.90;99.90;;;;;;5031296;28;19910;-69
2021/12/14 08:47:23;;;;;;;;;;;7.80;99.90;;;;;;5025924;28;19909;-69
2021/12/14 08:49:49;;;;;;;;;;;7.90;99.90;;;;;;5032732;28;19956;-69
2021/12/14 08:52:15;;;;;;;;;;;7.80;99.90;;;;;;5030014;28;19916;-69
2021/12/14 08:54:40;;;;;;;;;;;7.90;99.90;;;;;;5033282;28;19913;-69
2021/12/14 08:57:08;;;;;;;;;;;7.90;99.90;;;;;;5033435;28;19909;-69
2021/12/14 08:59:34;;;;;;;;;;;7.90;99.90;;;;;;5033273;28;19912;-70
2021/12/14 09:02:02;;;;;;;;;;;7.90;99.90;;;;;;5033213;28;19945;-70
2021/12/14 09:04:31;;;;;;;;;;;8.00;99.90;;;;;;5033794;28;19913;-70
2021/12/14 09:06:58;;;;;;;;;;;8.00;99.90;;;;;;5033372;28;19909;-69
2021/12/14 09:09:24;;;;;;;;;;;8.00;99.90;;;;;;5033089;28;20498;-69
2021/12/14 09:11:53;;;;;;;;;;;8.00;99.90;;;;;;5034022;28;19963;-70
2021/12/14 09:14:18;;;;;;;;;;;8.00;99.90;;;;;;5042626;28;19908;-68
2021/12/14 09:16:47;;;;;;;;;;;8.00;99.90;;;;;;5035026;28;20271;-70
2021/12/14 09:19:36;;;;;;;;;;;8.10;99.90;;;;;;5032490;28;19913;-69
2021/12/14 09:22:05;;;;;;;;;;;8.10;99.90;;;;;;5025785;28;19968;-69
2021/12/14 09:24:30;;;;;;;;;;;8.10;99.90;;;;;;5031884;28;20008;-70
2021/12/14 09:26:58;;;;;;;;;;;8.20;99.90;;;;;;5033702;28;19952;-70
2021/12/14 09:29:24;;;;;;;;;;;8.10;99.90;;;;;;5032360;28;19921;-69
2021/12/14 09:31:51;;;;;;;;;;;8.20;99.90;;;;;;5032359;28;19931;-70
2021/12/14 09:34:21;;;;;;;;;;;8.20;99.90;;;;;;5032283;28;20378;-70
2021/12/14 09:36:47;;;;;;;;;;;8.20;99.90;;;;;;5046521;28;20253;-70
2021/12/14 09:39:16;;;;;;;;;;;8.20;99.90;;;;;;5037979;28;19913;-69
2021/12/14 09:41:43;;;;;;;;;;;8.20;99.90;;;;;;5032059;28;19919;-69
2021/12/14 09:44:10;;;;;;;;;;;8.20;99.90;;;;;;5032829;28;19905;-70
2021/12/14 09:46:37;;;;;;;;;;;8.20;99.90;;;;;;5033416;28;19909;-69
2021/12/14 09:49:04;;;;;;;;;;;8.30;99.90;;;;;;5032062;28;19932;-70
2021/12/14 09:51:33;;;;;;;;;;;8.30;99.90;;;;;;5032110;28;19931;-70
2021/12/14 09:54:01;;;;;;;;;;;8.30;99.90;;;;;;5032367;28;20383;-70
2021/12/14 09:56:30;;;;;;;;;;;8.40;99.90;;;;;;5026442;28;19948;-70
2021/12/14 09:58:58;;;;;;;;;;;8.40;99.90;;;;;;5032794;28;20372;-68
2021/12/14 10:01:26;;;;;;;;;;;8.40;99.90;;;;;;5030914;28;19940;-68
2021/12/14 10:03:53;;;;;;;;;;;8.40;99.90;;;;;;5031483;28;20284;-67
2021/12/14 10:06:24;;;;;;;;;;;8.50;99.90;;;;;;5032918;28;19940;-70
2021/12/14 10:08:52;;;;;;;;;;;8.50;99.90;;;;;;5032701;28;19932;-70
2021/12/14 10:11:34;;;;;;;;;;;8.50;99.90;;;;;;5039249;28;19992;-70
2021/12/14 10:13:59;;;;;;;;;;;8.50;99.90;;;;;;5042269;28;19908;-70
2021/12/14 10:16:24;;;;;;;;;;;8.50;99.90;;;;;;5034878;28;19916;-69
2021/12/14 10:18:56;;;;;;;;;;;8.50;99.90;;;;;;5032799;28;20372;-69
2021/12/14 10:21:26;;;;;;;;;;;8.60;99.90;;;;;;5031855;28;19924;-70
2021/12/14 10:23:52;;;;;;;;;;;8.70;99.90;;;;;;5043408;28;20271;-70
2021/12/14 10:26:18;;;;;;;;;;;8.70;99.90;;;;;;5048152;28;20002;-69
2021/12/14 10:28:46;;;;;;;;;;;8.80;99.90;;;;;;5033183;28;19920;-69
2021/12/14 10:31:17;;;;;;;;;;;8.80;99.90;;;;;;5039546;28;20039;-69
2021/12/14 10:33:43;;;;;;;;;;;8.80;99.90;;;;;;5036230;28;19956;-70
2021/12/14 10:36:23;;;;;;;;;;;8.90;99.90;;;;;;5032321;28;19948;-70
2021/12/14 10:44:17;;;;;;;;;;;8.90;99.90;;;;;;5052193;28;19916;-70
2021/12/14 10:46:46;;;;;;;;;;;8.90;99.90;;;;;;5033708;28;19905;-70
2021/12/14 10:49:13;;;;;;;;;;;9.00;99.90;;;;;;5031988;28;19909;-70
2021/12/14 10:51:40;;;;;;;;;;;9.00;99.90;;;;;;5031615;28;19909;-70
2021/12/14 10:54:09;;;;;;;;;;;9.10;99.90;;;;;;5032496;28;19909;-68
2021/12/14 10:56:39;;;;;;;;;;;9.10;99.90;;;;;;5031864;28;19916;-68
2021/12/14 10:59:06;;;;;;;;;;;9.20;99.90;;;;;;5019439;28;19913;-68
2021/12/14 11:01:34;;;;;;;;;;;9.20;99.90;;;;;;5025104;28;19924;-70
2021/12/14 11:04:02;;;;;;;;;;;9.20;99.90;;;;;;5031966;28;19905;-69
2021/12/14 11:06:29;;;;;;;;;;;9.20;99.90;;;;;;5026962;28;20000;-68
2021/12/14 11:09:38;;;;;;;;;;;9.20;99.90;;;;;;5032281;28;19905;-68
2021/12/14 11:11:51;;;;;;;;;;;9.30;99.90;;;;;;5029219;28;20378;-68
2021/12/14 11:14:19;;;;;;;;;;;9.30;99.90;;;;;;5037076;28;19905;-68
2021/12/14 11:19:35;;;;;;;;;;;9.20;99.90;;;;;;5031911;28;19955;-68
2021/12/14 11:22:15;;;;;;;;;;;9.20;99.90;;;;;;5029717;28;19924;-68
2021/12/14 11:24:43;;;;;;;;;;;9.30;99.90;;;;;;5030674;28;19913;-67
2021/12/14 11:27:18;;;;;;;;;;;9.30;99.90;;;;;;5022505;28;19917;-70
2021/12/14 11:29:44;;;;;;;;;;;9.30;99.90;;;;;;5029025;28;19909;-69
2021/12/14 11:32:15;;;;;;;;;;;9.40;99.90;;;;;;5038634;28;20287;-70
2021/12/14 11:34:40;;;;;;;;;;;9.30;99.90;;;;;;5040368;28;20336;-70
2021/12/14 11:37:11;;;;;;;;;;;9.40;99.90;;;;;;5050745;28;19939;-70
2021/12/14 11:39:39;;;;;;;;;;;9.40;99.90;;;;;;5038513;28;20345;-70
2021/12/14 11:42:08;;;;;;;;;;;9.50;99.90;;;;;;5031344;28;19921;-68
2021/12/14 11:44:38;;;;;;;;;;;9.50;99.90;;;;;;5034560;28;20003;-70
2021/12/14 11:49:53;;;;;;;;;;;9.50;99.90;;;;;;5035115;28;20346;-70
2021/12/14 11:52:40;;;;;;;;;;;9.50;99.90;;;;;;5034613;28;19909;-70
2021/12/14 11:55:21;;;;;;;;;;;9.50;99.90;;;;;;5034809;28;20288;-70
2021/12/14 11:57:47;;;;;;;;;;;9.40;99.90;;;;;;5035066;28;20272;-70
2021/12/14 12:00:15;;;;;;;;;;;9.50;99.90;;;;;;5033937;28;19912;-70
2021/12/14 12:02:41;;;;;;;;;;;9.40;99.90;;;;;;5034805;28;20004;-70
2021/12/14 12:05:14;;;;;;;;;;;9.40;99.90;;;;;;5035066;28;19937;-70
2021/12/14 12:10:34;;;;;;;;;;;9.40;99.90;;;;;;5034098;28;19916;-70
2021/12/14 12:13:00;;;;;;;;;;;9.40;99.90;;;;;;5034927;28;19916;-70
2021/12/14 12:15:25;;;;;;;;;;;9.40;99.90;;;;;;5034769;28;19913;-69
2021/12/14 12:17:56;;;;;;;;;;;9.50;99.90;;;;;;5038429;28;19909;-68
2021/12/14 12:20:29;;;;;;;;;;;9.50;99.90;;;;;;5054228;28;19954;-67
2021/12/14 12:23:09;;;;;;;;;;;9.40;99.90;;;;;;5042846;28;19971;-68
2021/12/14 12:25:37;;;;;;;;;;;9.50;99.90;;;;;;5037239;28;19917;-69
2021/12/14 12:28:08;;;;;;;;;;;9.40;99.90;;;;;;5034062;28;19909;-68
2021/12/14 12:30:41;;;;;;;;;;;9.40;99.90;;;;;;5034137;28;20410;-68
2021/12/14 12:33:12;;;;;;;;;;;9.40;99.90;;;;;;5035147;28;19988;-68
2021/12/14 12:35:38;;;;;;;;;;;9.40;99.90;;;;;;5034314;28;20261;-68
2021/12/14 12:38:18;;;;;;;;;;;9.40;99.90;;;;;;5034339;28;19916;-68
2021/12/14 12:40:49;;;;;;;;;;;9.40;99.90;;;;;;5033621;28;19909;-68
2021/12/14 12:43:17;;;;;;;;;;;9.40;99.90;;;;;;5034087;28;19909;-68
2021/12/14 12:45:51;;;;;;;;;;;9.30;99.90;;;;;;5034050;28;19909;-69
2021/12/14 12:48:36;;;;;;;;;;;9.40;99.90;;;;;;5034161;28;19905;-68
2021/12/14 12:51:02;;;;;;;;;;;9.30;99.90;;;;;;5033303;28;20318;-69
2021/12/14 12:53:28;;;;;;;;;;;9.40;99.90;;;;;;5034175;28;19992;-68
2021/12/14 12:56:02;;;;;;;;;;;9.30;99.90;;;;;;5033724;28;19913;-68
2021/12/14 12:58:27;;;;;;;;;;;9.30;99.90;;;;;;5037762;28;20003;-68
2021/12/14 13:00:56;;;;;;;;;;;9.30;99.90;;;;;;5037754;28;20016;-68
2021/12/14 13:03:25;;;;;;;;;;;9.30;99.90;;;;;;5034074;28;19905;-68
2021/12/14 13:05:50;;;;;;;;;;;9.30;99.90;;;;;;5033947;28;20394;-69
2021/12/14 13:08:30;;;;;;;;;;;9.20;99.90;;;;;;5036615;28;19924;-68
2021/12/14 13:11:07;;;;;;;;;;;9.20;99.90;;;;;;5036866;28;20409;-69
2021/12/14 13:13:37;;;;;;;;;;;9.20;99.90;;;;;;5033874;28;19996;-68
2021/12/14 13:16:07;;;;;;;;;;;9.20;99.90;;;;;;5034491;28;19944;-68
2021/12/14 13:18:38;;;;;;;;;;;9.10;99.90;;;;;;5033872;28;19905;-69
2021/12/14 13:21:15;;;;;;;;;;;9.10;99.90;;;;;;5033706;28;19916;-68
2021/12/14 13:23:46;;;;;;;;;;;9.10;99.90;;;;;;5034089;28;19916;-69
2021/12/14 13:26:19;;;;;;;;;;;9.00;99.90;;;;;;5024720;28;20372;-69
2021/12/14 13:28:44;;;;;;;;;;;9.00;99.90;;;;;;5033630;28;19909;-68
2021/12/14 13:31:21;;;;;;;;;;;9.00;99.90;;;;;;5032600;28;19909;-69
2021/12/14 13:33:46;;;;;;;;;;;9.00;99.90;;;;;;5033101;28;19912;-69
2021/12/14 13:36:12;;;;;;;;;;;9.00;99.90;;;;;;5033024;28;19908;-69
2021/12/14 13:38:37;;;;;;;;;;;8.90;99.90;;;;;;5033563;28;19920;-69
2021/12/14 13:41:03;;;;;;;;;;;8.90;99.90;;;;;;5032664;28;20253;-70
2021/12/14 13:43:36;;;;;;;;;;;8.90;99.90;;;;;;5033460;28;19905;-70
2021/12/14 13:46:03;;;;;;;;;;;8.90;99.90;;;;;;5032919;28;19909;-69
2021/12/14 13:48:33;;;;;;;;;;;8.90;99.90;;;;;;5033080;28;19952;-69
2021/12/14 13:51:00;;;;;;;;;;;8.90;99.90;;;;;;5032459;28;19913;-69
2021/12/14 13:53:26;;;;;;;;;;;8.90;99.90;;;;;;5033090;28;20524;-69
2021/12/14 13:55:53;;;;;;;;;;;8.90;99.90;;;;;;5032947;28;19959;-69
2021/12/14 13:58:23;;;;;;;;;;;8.90;99.90;;;;;;5032887;28;19911;-69
2021/12/14 14:00:51;;;;;;;;;;;8.80;99.90;;;;;;5040149;28;19908;-69
2021/12/14 14:03:18;;;;;;;;;;;8.70;99.90;;;;;;5036885;28;20360;-69
2021/12/14 14:05:44;;;;;;;;;;;8.50;99.90;;;;;;5032539;28;19909;-69
2021/12/14 14:08:16;;;;;;;;;;;8.40;99.90;;;;;;5032563;28;19908;-70
2021/12/14 14:10:43;;;;;;;;;;;8.40;99.90;;;;;;5025304;28;19916;-69
2021/12/14 14:13:10;;;;;;;;;;;8.30;99.90;;;;;;5027555;28;20026;-69
2021/12/14 14:15:37;;;;;;;;;;;8.30;99.90;;;;;;5032115;28;19909;-69
2021/12/14 14:18:04;;;;;;;;;;;8.20;99.90;;;;;;5034539;28;19909;-68
2021/12/14 14:20:34;;;;;;;;;;;8.20;99.90;;;;;;5029112;28;19909;-70
2021/12/14 14:23:11;;;;;;;;;;;8.20;99.90;;;;;;5031689;28;19921;-69
2021/12/14 14:25:42;;;;;;;;;;;8.20;99.90;;;;;;5032382;28;19913;-70
2021/12/14 14:28:22;;;;;;;;;;;8.20;99.90;;;;;;5032476;28;19915;-70
2021/12/14 14:30:50;;;;;;;;;;;8.10;99.90;;;;;;5032155;28;19905;-69
2021/12/14 14:33:19;;;;;;;;;;;8.10;99.90;;;;;;5032342;28;20375;-69
2021/12/14 14:35:47;;;;;;;;;;;8.10;99.90;;;;;;5032542;28;19927;-69
2021/12/14 14:38:25;;;;;;;;;;;8.10;99.90;;;;;;5030477;28;19963;-70
2021/12/14 14:40:51;;;;;;;;;;;8.10;99.90;;;;;;5027669;28;19917;-70
2021/12/14 14:43:16;;;;;;;;;;;8.10;99.90;;;;;;5043180;28;19909;-70
2021/12/14 14:45:43;;;;;;;;;;;8.10;99.90;;;;;;5032763;28;19905;-69
2021/12/14 14:48:19;;;;;;;;;;;8.10;99.90;;;;;;5032280;28;19916;-69
2021/12/14 14:50:44;;;;;;;;;;;8.10;99.90;;;;;;5031067;28;19952;-69
2021/12/14 14:53:15;;;;;;;;;;;8.00;99.90;;;;;;5031215;28;19940;-70
2021/12/14 14:55:45;;;;;;;;;;;8.00;99.90;;;;;;5031248;28;19971;-69
2021/12/14 14:58:19;;;;;;;;;;;8.00;99.90;;;;;;5028344;28;19916;-70
2021/12/14 15:01:00;;;;;;;;;;;8.00;99.90;;;;;;5030873;28;19943;-69
2021/12/14 15:03:31;;;;;;;;;;;8.00;99.90;;;;;;5030819;28;19917;-69
2021/12/14 15:06:03;;;;;;;;;;;8.00;99.90;;;;;;5031366;28;19917;-69
2021/12/14 15:08:31;;;;;;;;;;;8.00;99.90;;;;;;5031002;28;20570;-70
2021/12/14 15:10:56;;;;;;;;;;;8.00;99.90;;;;;;5030826;28;20009;-69
2021/12/14 15:13:26;;;;;;;;;;;8.00;99.90;;;;;;5031487;28;19991;-69
2021/12/14 15:15:57;;;;;;;;;;;8.00;99.90;;;;;;5030775;28;20357;-70
2021/12/14 15:18:40;;;;;;;;;;;7.90;99.90;;;;;;5049532;28;19913;-69
2021/12/14 15:21:24;;;;;;;;;;;7.90;99.90;;;;;;5035011;28;19909;-69